Time;durP1;ratioP1;P1;durP2;ratioP2;P2;SDS_P1;SDS_P2;PMS_P1;PMS_P2;Temp;Humidity;BMP_temperature;BMP_pressure;BME280_temperature;BME280_humidity;BME280_pressure;Samples;Min_cycle;Max_cycle;Signal;HPM_P1;HPM_P2
2022/06/09 00:01:26;;;;;;;16.92;3.70;;;18.70;92.40;;;;;;5043003;28;20029;-68
2022/06/09 00:04:19;;;;;;;18.92;4.35;;;18.70;92.40;;;;;;5049038;28;20486;-68
2022/06/09 00:06:52;;;;;;;17.02;3.78;;;18.70;92.40;;;;;;5052535;28;20028;-68
2022/06/09 00:09:22;;;;;;;19.83;4.38;;;18.60;92.40;;;;;;5048390;28;20479;-69
2022/06/09 00:11:50;;;;;;;15.48;4.07;;;18.60;92.50;;;;;;5052131;28;20055;-69
2022/06/09 00:14:18;;;;;;;16.63;3.67;;;18.60;92.50;;;;;;5052245;28;20134;-69
2022/06/09 00:16:43;;;;;;;14.45;3.88;;;18.60;92.50;;;;;;5045748;28;20029;-69
2022/06/09 00:19:10;;;;;;;15.32;3.75;;;18.60;92.50;;;;;;5039186;28;20026;-69
2022/06/09 00:21:36;;;;;;;20.65;4.22;;;18.60;92.50;;;;;;5038582;28;20022;-69
2022/06/09 00:24:03;;;;;;;16.45;3.72;;;18.60;92.50;;;;;;5032709;28;20025;-68
2022/06/09 00:26:30;;;;;;;16.90;3.95;;;18.50;92.60;;;;;;5034010;28;20486;-69
2022/06/09 00:28:55;;;;;;;21.88;4.35;;;18.50;92.70;;;;;;5033025;28;20374;-68
2022/06/09 00:31:21;;;;;;;15.43;3.70;;;18.40;92.70;;;;;;5039380;28;20489;-70
2022/06/09 00:33:46;;;;;;;18.75;4.97;;;18.50;92.80;;;;;;5050538;28;20529;-69
2022/06/09 00:36:12;;;;;;;20.75;4.07;;;18.50;92.70;;;;;;5052492;28;20079;-69
2022/06/09 00:38:38;;;;;;;18.75;4.25;;;18.50;92.70;;;;;;5036921;28;20092;-69
2022/06/09 00:41:04;;;;;;;19.00;4.00;;;18.40;92.80;;;;;;5050679;28;20078;-70
2022/06/09 00:43:31;;;;;;;19.60;4.35;;;18.40;92.80;;;;;;5051944;28;20044;-69
2022/06/09 00:45:59;;;;;;;17.60;3.65;;;18.40;92.80;;;;;;5052061;28;20036;-69
2022/06/09 00:48:37;;;;;;;22.08;4.32;;;18.40;92.90;;;;;;5039241;28;20037;-69
2022/06/09 00:51:25;;;;;;;20.50;4.53;;;18.40;92.90;;;;;;5032712;28;20033;-69
2022/06/09 00:53:57;;;;;;;15.30;3.53;;;18.40;93.00;;;;;;5032775;28;20097;-70
2022/06/09 00:56:24;;;;;;;18.42;4.03;;;18.30;93.00;;;;;;5032491;28;20022;-69
2022/06/09 00:58:52;;;;;;;18.30;4.25;;;18.30;93.10;;;;;;5033662;28;20034;-70
2022/06/09 01:01:19;;;;;;;21.15;4.53;;;18.30;93.10;;;;;;5031728;28;20029;-70
2022/06/09 01:03:54;;;;;;;25.38;4.43;;;18.30;93.00;;;;;;5032550;28;20036;-70
2022/06/09 01:06:24;;;;;;;18.63;3.97;;;18.30;93.10;;;;;;5032663;28;20033;-70
2022/06/09 01:09:06;;;;;;;16.50;3.83;;;18.20;93.20;;;;;;5047152;28;20118;-69
2022/06/09 01:11:32;;;;;;;20.83;4.88;;;18.20;93.30;;;;;;5051967;28;20436;-69
2022/06/09 01:13:58;;;;;;;18.05;4.80;;;18.20;93.30;;;;;;5055152;28;20025;-69
2022/06/09 01:16:28;;;;;;;19.92;4.78;;;18.20;93.30;;;;;;5055751;28;20040;-69
2022/06/09 01:19:15;;;;;;;15.70;3.78;;;18.20;93.40;;;;;;5041258;28;20029;-69
2022/06/09 01:21:52;;;;;;;20.13;4.85;;;18.10;93.40;;;;;;5048467;28;20057;-69
2022/06/09 01:24:55;;;;;;;24.65;5.05;;;18.10;93.40;;;;;;5055649;28;20390;-70
2022/06/09 01:27:30;;;;;;;21.13;5.18;;;18.10;93.60;;;;;;5036732;28;20048;-69
2022/06/09 01:30:10;;;;;;;14.23;4.20;;;18.10;93.50;;;;;;5035650;28;20043;-69
2022/06/09 01:32:42;;;;;;;23.45;4.72;;;18.10;93.60;;;;;;5035013;28;20021;-69
2022/06/09 01:35:24;;;;;;;17.65;4.55;;;18.00;93.60;;;;;;5035977;28;20026;-70
2022/06/09 01:37:54;;;;;;;20.63;4.55;;;18.00;93.60;;;;;;5038233;28;20378;-69
2022/06/09 01:40:20;;;;;;;17.75;4.18;;;18.00;93.60;;;;;;5055547;28;20025;-69
2022/06/09 01:42:49;;;;;;;16.23;4.55;;;18.00;93.70;;;;;;5055457;28;20021;-69
2022/06/09 01:45:20;;;;;;;17.85;4.53;;;18.00;93.90;;;;;;5055494;28;20028;-69
2022/06/09 01:47:51;;;;;;;16.17;4.27;;;18.00;93.60;;;;;;5054605;28;20040;-69
2022/06/09 01:50:27;;;;;;;14.77;4.53;;;18.00;93.70;;;;;;5035545;28;20715;-69
2022/06/09 01:52:55;;;;;;;18.00;4.47;;;18.00;93.70;;;;;;5034986;28;20021;-69
2022/06/09 01:55:25;;;;;;;16.40;4.28;;;18.00;93.80;;;;;;5035523;28;20501;-69
2022/06/09 01:57:58;;;;;;;16.83;4.20;;;17.90;93.80;;;;;;5034921;28;20485;-68
2022/06/09 02:00:25;;;;;;;19.27;4.75;;;17.90;93.90;;;;;;5054918;28;20386;-68
2022/06/09 02:03:07;;;;;;;19.02;4.05;;;17.90;94.00;;;;;;5054453;28;20369;-69
2022/06/09 02:05:39;;;;;;;16.67;4.18;;;17.80;94.00;;;;;;5054828;28;20457;-68
2022/06/09 02:08:07;;;;;;;24.23;4.22;;;17.80;94.00;;;;;;5053412;28;20031;-69
2022/06/09 02:10:38;;;;;;;27.88;4.97;;;17.80;94.10;;;;;;5054901;28;20053;-69
2022/06/09 02:13:27;;;;;;;18.20;5.22;;;17.80;94.10;;;;;;5054639;28;20025;-69
2022/06/09 02:15:58;;;;;;;23.13;4.78;;;17.80;94.20;;;;;;5054068;28;20105;-69
2022/06/09 02:18:27;;;;;;;14.15;4.63;;;17.70;94.30;;;;;;5035178;28;20048;-68
2022/06/09 02:20:58;;;;;;;22.30;4.70;;;17.70;94.30;;;;;;5035057;28;20034;-69
2022/06/09 02:23:24;;;;;;;25.20;4.90;;;17.60;94.30;;;;;;5034797;28;20013;-68
2022/06/09 02:25:50;;;;;;;20.08;4.47;;;17.70;94.40;;;;;;5033478;28;20040;-69
2022/06/09 02:28:15;;;;;;;17.98;4.10;;;17.70;94.30;;;;;;5050987;28;20363;-69
2022/06/09 02:30:41;;;;;;;20.15;4.60;;;17.70;94.30;;;;;;5054555;28;20029;-69
2022/06/09 02:33:07;;;;;;;18.20;4.22;;;17.70;94.40;;;;;;5036579;28;20052;-69
2022/06/09 02:35:33;;;;;;;22.55;5.10;;;17.70;94.60;;;;;;5054648;28;20033;-69
2022/06/09 02:38:00;;;;;;;23.85;5.43;;;17.60;94.30;;;;;;5040629;28;20038;-68
2022/06/09 02:40:27;;;;;;;20.63;4.40;;;17.70;94.30;;;;;;5051292;28;20476;-69
2022/06/09 02:42:53;;;;;;;21.50;5.10;;;17.60;94.40;;;;;;5053845;28;20024;-68
2022/06/09 02:45:19;;;;;;;17.05;4.35;;;17.60;94.50;;;;;;5036581;28;20043;-69
2022/06/09 02:47:44;;;;;;;22.27;4.32;;;17.60;94.40;;;;;;5052319;28;20040;-68
2022/06/09 02:50:11;;;;;;;17.48;4.65;;;17.60;94.50;;;;;;5054065;28;20382;-68
2022/06/09 02:52:36;;;;;;;23.67;4.85;;;17.50;94.50;;;;;;5052279;28;20097;-69
2022/06/09 02:55:02;;;;;;;22.90;5.32;;;17.50;94.60;;;;;;5034246;28;20441;-69
2022/06/09 02:57:29;;;;;;;20.42;5.40;;;17.50;94.60;;;;;;5033516;28;20029;-69
2022/06/09 02:59:55;;;;;;;16.67;4.28;;;17.50;94.60;;;;;;5034178;28;20029;-68
2022/06/09 03:02:21;;;;;;;16.98;4.55;;;17.50;94.70;;;;;;5034122;28;20374;-70
2022/06/09 03:04:47;;;;;;;20.55;4.45;;;17.40;94.70;;;;;;5051398;28;20438;-70
2022/06/09 03:07:13;;;;;;;18.52;4.43;;;17.40;94.70;;;;;;5054187;28;20033;-70
2022/06/09 03:09:40;;;;;;;20.55;5.15;;;17.40;94.70;;;;;;5053063;28;20112;-69
2022/06/09 03:12:06;;;;;;;15.07;3.97;;;17.40;94.80;;;;;;5053530;28;20021;-69
2022/06/09 03:14:33;;;;;;;18.10;4.40;;;17.40;94.80;;;;;;5037813;28;20052;-68
2022/06/09 03:16:59;;;;;;;17.00;4.72;;;17.30;94.90;;;;;;5032926;28;20052;-69
2022/06/09 03:19:25;;;;;;;18.27;4.40;;;17.30;94.80;;;;;;5033742;28;20033;-69
2022/06/09 03:21:50;;;;;;;26.35;6.18;;;17.30;94.90;;;;;;5044395;28;20033;-69
2022/06/09 03:24:16;;;;;;;15.02;4.93;;;17.30;94.80;;;;;;5044610;28;20089;-68
2022/06/09 03:26:41;;;;;;;18.67;3.60;;;17.40;93.20;;;;;;5028763;28;20017;-69
2022/06/09 03:29:07;;;;;;;17.40;4.10;;;17.40;92.50;;;;;;5014619;28;20127;-69
2022/06/09 03:31:33;;;;;;;11.45;3.88;;;17.40;92.30;;;;;;5033933;28;20014;-69
2022/06/09 03:33:58;;;;;;;15.35;4.32;;;17.30;92.10;;;;;;5033369;28;20439;-69
2022/06/09 03:36:24;;;;;;;13.15;3.92;;;17.30;92.50;;;;;;5047106;28;20518;-69
2022/06/09 03:38:50;;;;;;;17.75;3.90;;;17.30;92.10;;;;;;5052376;28;20029;-69
2022/06/09 03:41:15;;;;;;;15.15;4.03;;;17.30;92.20;;;;;;5053439;28;20024;-69
2022/06/09 03:43:41;;;;;;;17.08;4.63;;;17.30;92.40;;;;;;5052691;28;20502;-69
2022/06/09 03:46:07;;;;;;;17.58;3.58;;;17.30;92.50;;;;;;5049502;28;20021;-69
2022/06/09 03:48:34;;;;;;;15.98;4.47;;;17.30;92.50;;;;;;5053232;28;20400;-68
2022/06/09 03:50:59;;;;;;;15.85;4.10;;;17.20;92.60;;;;;;5053267;28;20031;-68
2022/06/09 03:53:25;;;;;;;13.68;3.92;;;17.30;92.70;;;;;;5052557;28;20032;-68
2022/06/09 03:55:51;;;;;;;17.77;4.05;;;17.30;92.80;;;;;;5049670;28;20399;-68
2022/06/09 03:58:16;;;;;;;20.13;4.15;;;17.30;92.90;;;;;;5033276;28;20030;-69
2022/06/09 04:00:42;;;;;;;17.60;3.85;;;17.20;92.80;;;;;;5032540;28;20026;-69
2022/06/09 04:03:07;;;;;;;13.30;4.10;;;17.20;92.90;;;;;;5033131;28;20482;-68
2022/06/09 04:05:34;;;;;;;20.33;5.32;;;17.20;93.00;;;;;;5033136;28;20064;-68
2022/06/09 04:08:03;;;;;;;16.33;3.85;;;17.30;92.90;;;;;;5052315;28;20020;-68
2022/06/09 04:10:31;;;;;;;13.90;3.83;;;17.30;93.00;;;;;;5052228;28;20040;-68
2022/06/09 04:12:57;;;;;;;18.92;4.53;;;17.30;92.90;;;;;;5052951;28;20519;-68
2022/06/09 04:15:23;;;;;;;13.73;3.65;;;17.20;93.10;;;;;;5052959;28;20040;-68
2022/06/09 04:17:51;;;;;;;18.20;4.55;;;17.20;93.20;;;;;;5034076;28;20367;-68
2022/06/09 04:20:19;;;;;;;14.32;3.85;;;17.20;93.30;;;;;;5032884;28;20475;-68
2022/06/09 04:22:44;;;;;;;14.27;4.10;;;17.20;93.20;;;;;;5032550;28;20037;-68
2022/06/09 04:25:10;;;;;;;15.32;3.92;;;17.20;93.40;;;;;;5032810;28;20018;-68
2022/06/09 04:27:36;;;;;;;17.02;3.38;;;17.20;93.50;;;;;;5047753;28;20378;-68
2022/06/09 04:30:02;;;;;;;20.48;4.03;;;17.20;93.60;;;;;;5051660;28;20041;-68
2022/06/09 04:32:28;;;;;;;16.98;3.80;;;17.20;93.50;;;;;;5034986;28;20017;-68
2022/06/09 04:34:54;;;;;;;17.10;3.88;;;17.20;93.60;;;;;;5052657;28;20105;-68
2022/06/09 04:37:19;;;;;;;20.60;4.53;;;17.10;93.70;;;;;;5039845;28;20034;-68
2022/06/09 04:39:45;;;;;;;18.20;4.43;;;17.20;93.90;;;;;;5032466;28;20429;-68
2022/06/09 04:42:11;;;;;;;14.90;3.67;;;17.20;94.00;;;;;;5015184;28;20470;-68
2022/06/09 04:44:36;;;;;;;13.73;3.83;;;17.20;94.00;;;;;;5032755;28;20034;-68
2022/06/09 04:47:02;;;;;;;15.73;4.10;;;17.30;93.90;;;;;;5040975;28;20033;-69
2022/06/09 04:49:28;;;;;;;18.40;4.35;;;17.30;93.90;;;;;;5041774;28;20150;-69
2022/06/09 04:51:53;;;;;;;16.63;4.30;;;17.30;94.00;;;;;;5048161;28;20021;-69
2022/06/09 04:54:19;;;;;;;18.63;4.32;;;17.30;93.90;;;;;;5036576;28;20167;-69
2022/06/09 04:56:44;;;;;;;15.07;4.32;;;17.40;94.00;;;;;;5036277;28;20022;-69
2022/06/09 04:59:10;;;;;;;12.70;3.47;;;17.30;94.20;;;;;;5048985;28;20032;-69
2022/06/09 05:01:36;;;;;;;18.60;4.28;;;17.30;94.30;;;;;;5051819;28;20395;-69
2022/06/09 05:04:03;;;;;;;15.63;4.18;;;17.40;94.30;;;;;;5055970;28;20017;-68
2022/06/09 05:06:29;;;;;;;15.98;4.05;;;17.40;94.40;;;;;;5053938;28;20053;-69
2022/06/09 05:08:55;;;;;;;17.40;4.00;;;17.40;94.30;;;;;;5055380;28;20488;-68
2022/06/09 05:11:23;;;;;;;15.15;3.58;;;17.40;94.40;;;;;;5029807;28;20072;-69
2022/06/09 05:13:49;;;;;;;13.10;3.80;;;17.40;94.30;;;;;;5053174;28;20017;-69
2022/06/09 05:16:16;;;;;;;20.50;3.90;;;17.40;94.30;;;;;;5052645;28;20037;-69
2022/06/09 05:18:42;;;;;;;15.80;3.75;;;17.40;94.30;;;;;;5055407;28;20028;-68
2022/06/09 05:21:09;;;;;;;16.23;3.65;;;17.50;94.30;;;;;;5055239;28;20029;-68
2022/06/09 05:23:36;;;;;;;12.15;3.33;;;17.40;94.50;;;;;;5035326;28;20024;-69
2022/06/09 05:26:03;;;;;;;19.38;3.90;;;17.50;94.40;;;;;;5053613;28;20025;-68
2022/06/09 05:28:30;;;;;;;15.65;3.78;;;17.50;94.30;;;;;;5036678;28;20029;-69
2022/06/09 05:30:56;;;;;;;22.42;4.30;;;17.50;94.40;;;;;;5042740;28;20025;-69
2022/06/09 05:33:23;;;;;;;18.20;3.60;;;17.50;94.40;;;;;;5035336;28;20022;-69
2022/06/09 05:35:48;;;;;;;23.50;4.75;;;17.50;94.70;;;;;;5053492;28;20082;-70
2022/06/09 05:46:32;;;;;;;8.50;2.05;;;17.90;96.00;;;;;;5048990;28;20035;-69
2022/06/09 05:48:58;;;;;;;8.52;1.70;;;18.00;95.40;;;;;;5054643;28;20044;-69
2022/06/09 05:51:23;;;;;;;8.75;2.47;;;18.00;95.20;;;;;;5050701;28;20031;-70
2022/06/09 05:53:49;;;;;;;10.27;2.22;;;18.00;95.10;;;;;;5051583;28;20429;-69
2022/06/09 05:56:16;;;;;;;14.30;3.65;;;18.00;94.90;;;;;;5045274;28;20032;-70
2022/06/09 05:58:42;;;;;;;16.75;4.18;;;18.10;95.00;;;;;;5049865;28;20017;-69
2022/06/09 06:01:10;;;;;;;15.38;4.22;;;18.20;95.20;;;;;;5052018;28;20033;-69
2022/06/09 06:03:38;;;;;;;13.43;3.85;;;18.30;95.40;;;;;;5048709;28;20026;-70
2022/06/09 06:08:47;;;;;;;15.02;4.03;;;18.50;95.70;;;;;;5045985;28;20040;-70
2022/06/09 06:11:14;;;;;;;11.82;2.97;;;18.60;95.20;;;;;;5042057;28;20021;-69
2022/06/09 06:13:41;;;;;;;11.23;3.80;;;18.70;95.10;;;;;;5050786;28;20424;-69
2022/06/09 06:16:07;;;;;;;16.80;3.90;;;18.70;95.20;;;;;;5050490;28;20039;-70
2022/06/09 06:18:32;;;;;;;11.82;3.88;;;18.90;95.30;;;;;;5051784;28;20029;-70
2022/06/09 06:20:58;;;;;;;14.85;3.90;;;18.90;95.10;;;;;;5045362;28;20041;-69
2022/06/09 06:23:25;;;;;;;16.85;3.10;;;19.00;95.20;;;;;;5054711;28;20017;-70
2022/06/09 06:25:52;;;;;;;16.63;3.05;;;19.00;94.70;;;;;;5051333;28;20174;-70
2022/06/09 06:28:18;;;;;;;15.75;3.30;;;19.10;94.60;;;;;;5041365;28;20029;-70
2022/06/09 06:30:44;;;;;;;9.23;2.75;;;19.20;94.20;;;;;;5047443;28;20036;-70
2022/06/09 06:33:10;;;;;;;13.05;2.97;;;19.20;94.00;;;;;;5051209;28;20025;-73
2022/06/09 06:35:35;;;;;;;11.20;3.10;;;19.30;93.70;;;;;;5053710;28;20031;-70
2022/06/09 06:38:01;;;;;;;9.80;3.05;;;19.30;93.60;;;;;;5054258;28;20547;-70
2022/06/09 06:40:27;;;;;;;13.48;3.45;;;19.40;93.60;;;;;;5053749;28;20604;-70
2022/06/09 06:42:53;;;;;;;10.50;2.67;;;19.50;93.40;;;;;;5051559;28;20067;-68
2022/06/09 06:45:18;;;;;;;16.67;3.97;;;19.50;93.30;;;;;;5035872;28;20026;-69
2022/06/09 06:47:44;;;;;;;10.15;3.05;;;19.50;93.30;;;;;;5052785;28;20402;-69
2022/06/09 06:50:12;;;;;;;10.80;2.88;;;19.60;92.90;;;;;;5034964;28;20029;-69
2022/06/09 06:52:38;;;;;;;17.08;2.92;;;19.70;92.70;;;;;;5053877;28;20025;-71
2022/06/09 06:55:06;;;;;;;11.73;2.63;;;19.70;92.50;;;;;;5053412;28;20029;-70
2022/06/09 06:57:33;;;;;;;14.20;2.97;;;19.80;92.30;;;;;;5053341;28;20033;-68
2022/06/09 06:59:59;;;;;;;11.70;3.45;;;19.80;92.30;;;;;;5053485;28;20100;-68
2022/06/09 07:02:24;;;;;;;12.32;3.60;;;19.90;92.20;;;;;;5053587;28;20159;-71
2022/06/09 07:04:50;;;;;;;10.38;3.47;;;19.90;92.10;;;;;;5052672;28;20017;-70
2022/06/09 07:07:15;;;;;;;11.80;3.15;;;19.90;92.00;;;;;;5050417;28;20024;-70
2022/06/09 07:09:41;;;;;;;6.88;2.38;;;20.00;92.00;;;;;;5034311;28;20025;-71
2022/06/09 07:12:07;;;;;;;11.05;3.00;;;20.00;91.60;;;;;;5051342;28;20458;-69
2022/06/09 07:14:33;;;;;;;8.95;2.20;;;20.00;91.60;;;;;;5048992;28;20413;-70
2022/06/09 07:17:00;;;;;;;7.95;2.22;;;20.10;91.50;;;;;;5051198;28;20136;-69
2022/06/09 07:19:25;;;;;;;8.13;2.22;;;20.10;91.60;;;;;;5052084;28;20525;-70
2022/06/09 07:21:51;;;;;;;7.40;2.05;;;20.10;91.60;;;;;;5049585;28;20104;-70
2022/06/09 07:24:16;;;;;;;8.40;1.95;;;20.20;91.30;;;;;;5046699;28;20052;-69
2022/06/09 07:26:42;;;;;;;6.13;1.52;;;20.20;90.80;;;;;;5027407;28;20119;-69
2022/06/09 07:29:08;;;;;;;8.20;2.10;;;20.30;90.50;;;;;;5044206;28;20151;-69
2022/06/09 07:31:33;;;;;;;4.65;1.40;;;20.30;90.50;;;;;;5037410;28;20025;-69
2022/06/09 07:33:59;;;;;;;7.90;1.63;;;20.30;90.50;;;;;;5051176;28;20094;-69
2022/06/09 07:36:26;;;;;;;4.38;1.50;;;20.40;90.60;;;;;;5038997;28;20033;-70
2022/06/09 07:38:52;;;;;;;3.25;1.38;;;20.40;90.30;;;;;;5030733;28;20067;-70
2022/06/09 07:41:20;;;;;;;3.60;1.10;;;20.50;90.20;;;;;;5049979;28;20378;-70
2022/06/09 07:43:47;;;;;;;8.40;1.75;;;20.40;90.30;;;;;;5040917;28;20029;-71
2022/06/09 07:46:13;;;;;;;6.25;1.48;;;20.50;90.20;;;;;;5030206;28;20033;-70
2022/06/09 07:48:39;;;;;;;4.70;1.30;;;20.50;90.40;;;;;;5039352;28;20040;-72
2022/06/09 07:51:04;;;;;;;9.63;1.60;;;20.50;90.40;;;;;;5051225;28;20381;-73
2022/06/09 07:53:30;;;;;;;9.13;1.85;;;20.60;90.60;;;;;;5048970;28;20025;-72
2022/06/09 07:55:56;;;;;;;6.93;1.70;;;20.60;90.70;;;;;;5051430;28;20039;-71
2022/06/09 07:58:22;;;;;;;9.18;1.83;;;20.70;90.60;;;;;;5048433;28;20021;-70
2022/06/09 08:00:48;;;;;;;7.13;1.83;;;20.60;90.40;;;;;;5052221;28;20039;-72
2022/06/09 08:03:20;;;;;;;5.85;1.90;;;20.70;90.60;;;;;;5051724;28;20517;-72
2022/06/09 08:05:47;;;;;;;9.10;1.55;;;20.70;90.40;;;;;;5052834;28;20490;-72
2022/06/09 08:08:12;;;;;;;7.75;1.67;;;20.70;90.30;;;;;;5031499;28;20029;-72
2022/06/09 08:10:39;;;;;;;10.43;2.05;;;20.70;90.30;;;;;;5050566;28;20033;-71
2022/06/09 08:13:05;;;;;;;9.32;1.52;;;20.70;90.40;;;;;;5052896;28;20031;-72
2022/06/09 08:15:32;;;;;;;9.73;1.63;;;20.70;90.50;;;;;;5049964;28;20113;-73
2022/06/09 08:17:59;;;;;;;6.85;1.65;;;20.80;90.70;;;;;;5051904;28;20029;-69
2022/06/09 08:20:31;;;;;;;7.47;1.85;;;20.80;90.50;;;;;;5050497;28;20461;-72
2022/06/09 08:23:25;;;;;;;8.00;1.83;;;20.80;90.50;;;;;;5053072;28;20032;-72
2022/06/09 08:25:54;;;;;;;4.70;1.40;;;20.80;90.60;;;;;;5054057;28;20501;-73
2022/06/09 08:28:21;;;;;;;6.28;1.60;;;20.80;90.40;;;;;;5056275;28;20021;-72
2022/06/09 08:30:49;;;;;;;4.85;2.17;;;20.80;90.20;;;;;;5055649;28;20453;-70
2022/06/09 08:33:16;;;;;;;8.32;1.75;;;20.80;90.00;;;;;;5056167;28;20040;-70
2022/06/09 08:35:41;;;;;;;6.47;1.27;;;20.80;89.70;;;;;;5055977;28;20377;-70
2022/06/09 08:38:07;;;;;;;5.53;2.63;;;20.80;89.50;;;;;;5055870;28;20017;-72
2022/06/09 08:41:30;;;;;;;6.25;1.73;;;20.80;89.40;;;;;;5056617;28;20450;-70
2022/06/09 08:44:27;;;;;;;5.93;1.52;;;20.80;89.10;;;;;;4975341;28;20023;-71
2022/06/09 08:47:08;;;;;;;6.20;1.60;;;20.80;89.50;;;;;;5055964;28;20021;-70
2022/06/09 08:49:50;;;;;;;7.25;1.70;;;20.90;89.00;;;;;;5055649;28;20033;-70
2022/06/09 08:52:33;;;;;;;5.93;1.73;;;20.90;89.70;;;;;;5037172;28;20021;-69
2022/06/09 08:55:15;;;;;;;6.53;1.65;;;20.80;89.20;;;;;;5055725;28;20044;-72
2022/06/09 08:57:43;;;;;;;6.95;1.70;;;20.90;89.10;;;;;;5055814;28;20032;-70
2022/06/09 09:00:13;;;;;;;6.45;1.40;;;20.90;89.20;;;;;;5053032;28;20355;-69
2022/06/09 09:02:43;;;;;;;9.82;1.67;;;20.90;89.30;;;;;;5056090;28;20496;-70
2022/06/09 09:05:24;;;;;;;5.32;1.42;;;20.80;89.40;;;;;;5053897;28;20025;-71
2022/06/09 09:07:54;;;;;;;6.63;1.95;;;20.90;89.30;;;;;;5054193;28;20115;-69
2022/06/09 09:10:56;;;;;;;4.22;1.17;;;20.90;89.30;;;;;;5037235;28;20440;-70
2022/06/09 09:13:30;;;;;;;7.75;1.80;;;20.90;89.40;;;;;;5014151;28;20029;-69
2022/06/09 09:16:03;;;;;;;8.73;1.58;;;20.90;89.20;;;;;;5051821;28;20044;-70
2022/06/09 09:18:29;;;;;;;4.40;1.10;;;20.90;89.00;;;;;;5051366;28;20114;-70
2022/06/09 09:21:04;;;;;;;7.60;1.60;;;20.90;88.80;;;;;;5029448;28;20493;-69
2022/06/09 09:24:00;;;;;;;8.73;1.77;;;21.00;88.80;;;;;;5032211;28;20482;-72
2022/06/09 09:26:29;;;;;;;7.00;1.50;;;21.00;88.80;;;;;;5049342;28;20052;-70
2022/06/09 09:29:20;;;;;;;5.47;1.40;;;21.00;89.40;;;;;;5040816;28;20108;-69
2022/06/09 09:31:50;;;;;;;4.32;1.27;;;21.00;88.90;;;;;;5016632;28;20098;-70
2022/06/09 09:34:21;;;;;;;6.65;1.83;;;21.00;89.10;;;;;;5052360;28;20029;-70
2022/06/09 09:36:50;;;;;;;6.37;1.60;;;20.90;89.40;;;;;;5047003;28;20466;-70
2022/06/09 09:39:30;;;;;;;7.82;1.40;;;20.90;89.50;;;;;;5048893;28;20032;-70
2022/06/09 09:42:14;;;;;;;7.38;1.30;;;21.00;89.60;;;;;;5039616;28;20025;-69
2022/06/09 09:44:40;;;;;;;6.68;1.00;;;20.90;89.70;;;;;;5040622;28;20021;-71
2022/06/09 09:47:05;;;;;;;7.15;1.17;;;20.90;89.50;;;;;;5040966;28;20378;-72
2022/06/09 09:49:48;;;;;;;7.07;1.88;;;21.00;89.00;;;;;;5044110;28;20076;-72
2022/06/09 09:52:42;;;;;;;5.55;1.30;;;21.00;89.60;;;;;;5044206;28;20358;-72
2022/06/09 09:55:31;;;;;;;5.05;1.50;;;21.00;89.80;;;;;;5041303;28;20059;-71
2022/06/09 09:58:18;;;;;;;7.75;1.95;;;21.00;89.50;;;;;;5045214;28;20505;-72
2022/06/09 10:00:44;;;;;;;6.43;1.33;;;21.00;89.10;;;;;;5038630;28;20048;-71
2022/06/09 10:09:23;;;;;;;5.68;1.23;;;21.10;87.90;;;;;;5053959;28;20444;-72
2022/06/09 10:11:55;;;;;;;7.50;1.33;;;21.00;87.80;;;;;;5039537;28;20491;-72
2022/06/09 10:14:29;;;;;;;7.72;1.85;;;21.00;88.00;;;;;;5048164;28;20028;-72
2022/06/09 10:16:56;;;;;;;4.78;1.25;;;21.10;87.60;;;;;;5047169;28;20029;-72
2022/06/09 10:19:25;;;;;;;8.52;1.60;;;21.00;87.20;;;;;;5050359;28;20021;-71
2022/06/09 10:21:57;;;;;;;11.68;2.33;;;21.00;87.20;;;;;;5053504;28;20029;-72
2022/06/09 10:24:31;;;;;;;7.45;1.60;;;21.10;87.00;;;;;;5045686;28;20509;-71
2022/06/09 10:26:58;;;;;;;7.05;1.52;;;21.10;87.00;;;;;;5051002;28;20032;-71
2022/06/09 10:29:33;;;;;;;2.50;0.90;;;21.10;86.90;;;;;;5043050;28;20029;-71
2022/06/09 10:32:24;;;;;;;5.85;1.55;;;21.10;86.80;;;;;;5049137;28;20207;-72
2022/06/09 10:35:14;;;;;;;7.57;1.57;;;21.10;86.80;;;;;;5053290;28;20074;-72
2022/06/09 10:37:56;;;;;;;6.55;1.73;;;21.10;86.60;;;;;;5039933;28;20471;-72
2022/06/09 10:40:47;;;;;;;8.07;1.50;;;21.10;86.70;;;;;;5047700;28;20385;-71
2022/06/09 10:43:45;;;;;;;7.63;1.27;;;21.20;86.70;;;;;;5036762;28;20025;-72
2022/06/09 10:46:27;;;;;;;8.70;1.50;;;21.20;86.50;;;;;;5046565;28;20027;-73
2022/06/09 10:55:15;;;;;;;;;;;21.20;86.30;;;;;;5050276;28;20456;-70
2022/06/09 10:58:02;;;;;;;8.27;1.50;;;21.20;86.30;;;;;;5043527;28;19919;-74
2022/06/09 11:00:35;;;;;;;9.48;2.08;;;21.20;86.60;;;;;;5047192;28;20094;-73
2022/06/09 11:03:08;;;;;;;12.80;2.00;;;21.20;86.70;;;;;;5034620;28;20106;-74
2022/06/09 11:06:05;;;;;;;10.25;2.03;;;21.20;86.60;;;;;;5043639;28;21551;-74
2022/06/09 11:09:08;;;;;;;8.93;1.58;;;21.20;86.80;;;;;;5042612;28;20063;-73
2022/06/09 11:11:57;;;;;;;10.38;2.08;;;21.20;86.90;;;;;;5041931;28;20036;-70
2022/06/09 11:14:48;;;;;;;12.00;2.15;;;21.30;87.20;;;;;;5043477;28;20489;-73
2022/06/09 11:17:23;;;;;;;10.38;1.95;;;21.30;87.40;;;;;;5046334;28;20029;-72
2022/06/09 11:20:30;;;;;;;8.70;2.30;;;21.30;87.10;;;;;;5048323;28;20044;-72
2022/06/09 11:23:23;;;;;;;8.63;2.17;;;21.30;87.20;;;;;;5051901;28;20025;-73
2022/06/09 11:26:02;;;;;;;10.52;2.03;;;21.30;87.50;;;;;;5051460;28;20475;-72
2022/06/09 11:28:46;;;;;;;8.02;1.92;;;21.30;87.50;;;;;;5044709;28;20402;-72
2022/06/09 11:31:30;;;;;;;8.35;2.05;;;21.30;87.60;;;;;;5048119;28;20037;-72
2022/06/09 11:34:16;;;;;;;8.70;1.95;;;21.20;87.50;;;;;;5048925;28;20036;-71
2022/06/09 11:37:23;;;;;;;9.50;2.00;;;21.30;87.00;;;;;;5034609;28;20543;-71
2022/06/09 11:40:11;;;;;;;6.43;1.73;;;21.30;86.80;;;;;;5043032;28;20060;-70
2022/06/09 11:42:45;;;;;;;12.10;1.85;;;21.30;86.70;;;;;;5051480;28;20017;-70
2022/06/09 11:45:27;;;;;;;6.55;1.38;;;21.30;86.80;;;;;;5051500;28;20121;-71
2022/06/09 11:47:55;;;;;;;10.85;1.70;;;21.40;86.30;;;;;;5052247;28;20035;-72
2022/06/09 11:50:27;;;;;;;6.82;1.73;;;21.30;86.50;;;;;;5051416;28;20036;-72
2022/06/09 11:52:56;;;;;;;7.68;1.70;;;21.30;86.50;;;;;;5052879;28;20025;-71
2022/06/09 11:58:49;;;;;;;11.45;1.63;;;21.40;85.80;;;;;;5043914;28;20382;-70
2022/06/09 12:01:15;;;;;;;6.68;1.67;;;21.40;85.40;;;;;;4984576;28;20042;-69
2022/06/09 12:03:44;;;;;;;6.72;1.60;;;21.50;83.90;;;;;;5042242;28;20079;-70
2022/06/09 12:06:14;;;;;;;8.90;1.88;;;21.50;83.50;;;;;;5050958;28;20096;-70
2022/06/09 12:08:53;;;;;;;9.90;1.52;;;21.50;84.20;;;;;;5047390;28;20536;-71
2022/06/09 12:11:22;;;;;;;6.35;1.48;;;21.50;85.00;;;;;;5042709;28;20075;-72
2022/06/09 12:14:02;;;;;;;10.43;1.85;;;21.50;84.70;;;;;;5047245;28;20021;-70
2022/06/09 12:16:36;;;;;;;8.32;1.50;;;21.50;83.70;;;;;;5039336;28;20033;-69
2022/06/09 12:19:13;;;;;;;6.70;2.15;;;21.50;83.50;;;;;;5042793;28;20036;-69
2022/06/09 12:21:42;;;;;;;7.22;1.30;;;21.50;84.70;;;;;;5026705;28;20043;-71
2022/06/09 12:24:14;;;;;;;10.93;2.03;;;21.50;84.80;;;;;;5040521;28;20426;-71
2022/06/09 12:26:39;;;;;;;5.88;1.42;;;21.60;84.30;;;;;;5051414;28;20036;-71
2022/06/09 12:29:35;;;;;;;5.93;1.30;;;21.60;83.70;;;;;;5052370;28;20045;-70
2022/06/09 12:32:07;;;;;;;6.43;1.65;;;21.60;83.50;;;;;;5043600;28;20159;-70
2022/06/09 12:34:50;;;;;;;7.28;1.10;;;21.60;82.50;;;;;;5048538;28;20117;-71
2022/06/09 12:37:24;;;;;;;4.18;1.05;;;21.60;83.00;;;;;;5035949;28;20022;-71
2022/06/09 12:39:59;;;;;;;6.65;1.20;;;21.60;82.10;;;;;;5050699;28;20527;-70
2022/06/09 12:42:32;;;;;;;7.40;1.30;;;21.70;81.80;;;;;;5039752;28;20494;-73
2022/06/09 12:45:13;;;;;;;6.78;1.70;;;21.70;80.50;;;;;;5052131;28;20028;-71
2022/06/09 12:47:55;;;;;;;9.40;1.97;;;21.70;81.70;;;;;;5039336;28;20029;-71
2022/06/09 12:50:46;;;;;;;5.55;1.10;;;21.70;82.00;;;;;;5030168;28;20300;-71
2022/06/09 12:53:26;;;;;;;7.88;1.67;;;21.70;81.40;;;;;;5032219;28;20018;-72
2022/06/09 12:55:56;;;;;;;6.97;1.35;;;21.70;82.10;;;;;;5050738;28;20048;-70
2022/06/09 12:58:42;;;;;;;5.78;1.08;;;21.70;81.30;;;;;;5038355;28;20113;-70
2022/06/09 13:01:15;;;;;;;4.00;1.00;;;21.80;81.20;;;;;;5048148;28;20028;-72
2022/06/09 13:03:47;;;;;;;6.10;1.40;;;21.80;80.70;;;;;;5047357;28;20039;-70
2022/06/09 13:06:37;;;;;;;5.82;1.30;;;21.80;79.30;;;;;;5028889;28;20028;-71
2022/06/09 13:09:15;;;;;;;5.97;1.27;;;21.80;79.60;;;;;;5038573;28;20041;-72
2022/06/09 13:14:33;;;;;;;5.50;1.42;;;21.80;79.40;;;;;;5050220;28;20044;-70
2022/06/09 13:17:11;;;;;;;6.70;1.58;;;21.80;78.30;;;;;;5050924;28;20037;-69
2022/06/09 13:19:37;;;;;;;5.20;1.52;;;21.80;78.00;;;;;;5048982;28;20033;-71
2022/06/09 13:22:07;;;;;;;7.40;1.15;;;21.90;78.60;;;;;;5055082;28;20031;-70
2022/06/09 13:24:36;;;;;;;6.90;1.27;;;21.80;78.60;;;;;;5037452;28;20104;-70
2022/06/09 13:27:09;;;;;;;5.63;0.90;;;21.80;78.10;;;;;;5045544;28;20528;-73
2022/06/09 13:29:51;;;;;;;7.13;1.40;;;21.90;78.40;;;;;;5032675;28;20048;-78
2022/06/09 13:32:23;;;;;;;8.07;1.35;;;21.90;77.60;;;;;;5051453;28;20063;-73